Heat Index SAI AWOS Graphical Display Untitled Document
Bertrand Chaffee Hospital Heliport (2NK6) Springville, New York, USA
170
13:50
20/01/2017
07
10
VRB
29.76
N/A
1420
37(F), 3(C)
34(F), 1(C)
32 F
88%
VV005
3/4
BR
0"
N/A
13:50 zulu Wind 170 at 07 Knots, Gusting 10 Knots, Altimeter 29.76
METAR K2NK6 201350Z AUTO 17007G10KT V0RB 3/4SM BR VV005 03/01 A2976 A02 P0000
METAR:
FAA Disclaimer--Advisory Use ONLY, not for flight info--
INFO:
Wind Direction:
Wind Speed:
Wind Gust:
Wind Variable:
Altimeter:
Dens Alt:
Elev:
Temp:
Dwpt:
Wind Chill
Rel Humidity:
Ceiling:
Visibility:
Prsnt Wea:
PCPN:
Remarks:
How to read the WebPage